createdAt,value
2022-08-17T00:00:49.546Z,19.97
2022-08-17T00:03:27.315Z,20.00
2022-08-17T00:06:01.816Z,20.01
2022-08-17T00:08:36.053Z,19.99
2022-08-17T00:11:12.005Z,20.02
2022-08-17T00:13:49.948Z,20.03
2022-08-17T00:16:50.623Z,20.05
2022-08-17T00:19:21.665Z,20.07
2022-08-17T00:22:32.564Z,20.06
2022-08-17T00:24:52.783Z,20.07
2022-08-17T00:27:27.493Z,20.05
2022-08-17T00:30:02.197Z,19.99
2022-08-17T00:33:15.900Z,19.97
2022-08-17T00:35:38.589Z,19.96
2022-08-17T00:38:11.653Z,19.96
2022-08-17T00:40:49.565Z,19.93
2022-08-17T00:43:27.809Z,19.86
2022-08-17T00:46:00.191Z,19.83
2022-08-17T00:48:31.475Z,19.81
2022-08-17T00:51:16.255Z,19.81
2022-08-17T00:53:52.407Z,19.83
2022-08-17T00:56:30.636Z,19.80
2022-08-17T00:59:06.810Z,19.75
2022-08-17T01:01:41.927Z,19.72
2022-08-17T01:04:14.178Z,19.67
2022-08-17T01:06:52.512Z,19.63
2022-08-17T01:09:30.081Z,19.61
2022-08-17T01:12:03.028Z,19.58
2022-08-17T01:14:34.122Z,19.56
2022-08-17T01:17:06.231Z,19.52
2022-08-17T01:22:30.218Z,19.43
2022-08-17T01:25:04.411Z,19.41
2022-08-17T01:27:37.442Z,19.41
2022-08-17T01:30:57.225Z,19.43
2022-08-17T01:33:14.841Z,19.47
2022-08-17T01:35:45.664Z,19.42
2022-08-17T01:38:27.086Z,19.35
2022-08-17T01:41:05.026Z,19.27
2022-08-17T01:43:43.131Z,19.19
2022-08-17T01:46:21.925Z,19.11
2022-08-17T01:48:54.262Z,19.11
2022-08-17T01:51:26.050Z,19.12
2022-08-17T01:53:59.710Z,19.14
2022-08-17T01:56:35.756Z,19.15
2022-08-17T01:59:06.992Z,19.15
2022-08-17T02:01:40.349Z,19.21
2022-08-17T02:04:11.317Z,19.27
2022-08-17T02:06:53.554Z,19.31
2022-08-17T02:09:29.813Z,19.36
2022-08-17T02:12:39.054Z,19.42
2022-08-17T02:15:01.453Z,19.47
2022-08-17T02:17:42.747Z,19.45
2022-08-17T02:20:14.675Z,19.38
2022-08-17T02:22:48.601Z,19.31
2022-08-17T02:25:21.722Z,19.25
2022-08-17T02:27:52.874Z,19.17
2022-08-17T02:30:59.195Z,19.05
2022-08-17T02:33:18.270Z,18.95
2022-08-17T02:35:53.117Z,18.91
2022-08-17T02:38:28.455Z,18.84
2022-08-17T02:41:02.763Z,18.74
2022-08-17T02:43:34.173Z,18.72
2022-08-17T02:46:09.482Z,18.71
2022-08-17T02:48:45.827Z,18.69
2022-08-17T02:51:18.097Z,18.64
2022-08-17T02:54:03.909Z,18.62
2022-08-17T02:56:50.912Z,18.57
2022-08-17T02:59:28.333Z,18.55
2022-08-17T03:02:06.897Z,18.55
2022-08-17T03:04:43.101Z,18.57
2022-08-17T03:07:17.489Z,18.57
2022-08-17T03:09:50.073Z,18.61
2022-08-17T03:12:20.732Z,18.58
2022-08-17T03:14:53.564Z,18.55
2022-08-17T03:17:27.100Z,18.57
2022-08-17T03:20:08.579Z,18.60
2022-08-17T03:22:48.036Z,18.58
2022-08-17T03:25:34.428Z,18.46
2022-08-17T03:28:14.837Z,18.42
2022-08-17T03:30:51.210Z,18.40
2022-08-17T03:33:25.961Z,18.40
2022-08-17T03:36:00.736Z,18.40
2022-08-17T03:38:42.457Z,18.41
2022-08-17T03:41:16.253Z,18.43
2022-08-17T03:43:53.313Z,18.43
2022-08-17T03:46:43.993Z,18.44
2022-08-17T03:49:35.898Z,18.43
2022-08-17T03:52:26.893Z,18.28
2022-08-17T03:55:15.647Z,18.12
2022-08-17T03:57:46.158Z,18.12
2022-08-17T04:00:24.521Z,18.15
2022-08-17T04:02:57.433Z,18.19
2022-08-17T04:05:37.030Z,18.17
2022-08-17T04:08:17.620Z,18.17
2022-08-17T04:10:53.397Z,18.18
2022-08-17T04:13:25.982Z,18.18
2022-08-17T04:16:05.665Z,18.17
2022-08-17T04:18:38.352Z,18.13
2022-08-17T04:21:16.000Z,18.09
2022-08-17T04:23:46.835Z,18.11
2022-08-17T04:26:53.748Z,18.15
2022-08-17T04:29:13.002Z,18.22
2022-08-17T04:31:45.265Z,18.27
2022-08-17T04:34:19.580Z,18.33
2022-08-17T04:37:14.676Z,18.41
2022-08-17T04:40:07.166Z,18.45
2022-08-17T04:42:40.001Z,18.52
2022-08-17T04:45:19.380Z,18.67
2022-08-17T04:47:56.855Z,18.74
2022-08-17T04:50:29.552Z,18.82
2022-08-17T04:53:00.806Z,18.89
2022-08-17T04:55:34.032Z,18.96
2022-08-17T04:58:08.073Z,19.04
2022-08-17T05:00:41.742Z,19.12
2022-08-17T05:03:15.399Z,19.20
2022-08-17T05:05:49.780Z,19.29
2022-08-17T05:08:25.489Z,19.39
2022-08-17T05:10:59.798Z,19.49
2022-08-17T05:13:32.654Z,19.59
2022-08-17T05:16:06.803Z,19.68
2022-08-17T05:18:41.539Z,19.77
2022-08-17T05:21:22.166Z,19.96
2022-08-17T05:23:58.912Z,20.46
2022-08-17T05:26:31.232Z,20.89
2022-08-17T05:29:15.382Z,21.14
2022-08-17T05:31:58.368Z,21.64
2022-08-17T05:34:29.776Z,21.77
2022-08-17T05:37:04.575Z,21.77
2022-08-17T05:39:42.070Z,21.81
2022-08-17T05:42:13.187Z,21.83
2022-08-17T05:45:00.934Z,21.84
2022-08-17T05:47:33.493Z,21.85
2022-08-17T05:50:27.207Z,21.85
2022-08-17T05:53:17.653Z,21.87
2022-08-17T05:56:00.293Z,21.90
2022-08-17T05:58:43.903Z,21.94
2022-08-17T06:01:31.916Z,21.98
2022-08-17T06:04:19.705Z,22.05
2022-08-17T06:07:15.474Z,22.21
2022-08-17T06:13:00.701Z,22.80
2022-08-17T06:15:39.909Z,23.09
2022-08-17T06:18:15.938Z,23.32
2022-08-17T06:20:55.582Z,23.25
2022-08-17T06:23:31.472Z,23.20
2022-08-17T06:26:08.989Z,23.19
2022-08-17T06:28:43.599Z,23.18
2022-08-17T06:31:22.560Z,23.20
2022-08-17T06:33:52.979Z,23.21
2022-08-17T06:36:40.236Z,23.23
2022-08-17T06:39:26.786Z,23.26
2022-08-17T06:42:09.642Z,23.29
2022-08-17T06:45:08.391Z,23.35
2022-08-17T06:47:47.522Z,23.51
2022-08-17T06:50:22.806Z,23.98
2022-08-17T06:52:58.746Z,24.26
2022-08-17T06:55:37.888Z,24.24
2022-08-17T06:58:16.443Z,24.24
2022-08-17T07:00:49.628Z,24.26
2022-08-17T07:03:30.300Z,24.28
2022-08-17T07:06:06.749Z,24.30
2022-08-17T07:08:43.125Z,24.30
2022-08-17T07:11:17.204Z,24.28
2022-08-17T07:13:57.019Z,24.28
2022-08-17T07:16:33.762Z,24.30
2022-08-17T07:19:06.150Z,24.32
2022-08-17T07:21:50.957Z,24.34
2022-08-17T07:24:35.646Z,24.34
2022-08-17T07:27:09.589Z,24.38
2022-08-17T07:29:43.987Z,24.43
2022-08-17T07:32:18.651Z,24.47
2022-08-17T07:35:15.387Z,24.51
2022-08-17T07:37:51.529Z,24.54
2022-08-17T07:40:28.111Z,24.59
2022-08-17T07:43:21.832Z,24.65
2022-08-17T07:46:22.933Z,24.72
2022-08-17T07:48:55.512Z,24.80
2022-08-17T07:51:33.674Z,24.85
2022-08-17T07:54:22.373Z,24.90
2022-08-17T07:56:55.233Z,24.95
2022-08-17T07:59:33.260Z,25.00
2022-08-17T08:02:22.292Z,25.07
2022-08-17T08:05:12.230Z,25.14
2022-08-17T08:07:54.386Z,25.19
2022-08-17T08:10:35.554Z,25.24
2022-08-17T08:13:12.303Z,25.32
2022-08-17T08:15:54.024Z,25.36
2022-08-17T08:18:53.844Z,25.42
2022-08-17T08:21:44.968Z,25.48
2022-08-17T08:24:33.168Z,25.53
2022-08-17T08:27:12.908Z,25.59
2022-08-17T08:29:52.788Z,25.66
2022-08-17T08:32:37.916Z,25.74
2022-08-17T08:35:14.830Z,25.79
2022-08-17T08:37:53.753Z,25.84
2022-08-17T08:40:41.700Z,25.89
2022-08-17T08:43:28.201Z,25.94
2022-08-17T08:46:07.761Z,25.98
2022-08-17T08:49:45.157Z,26.05
2022-08-17T08:52:32.269Z,26.09
2022-08-17T08:55:09.253Z,26.11
2022-08-17T08:57:46.382Z,26.13
2022-08-17T09:00:20.137Z,26.15
2022-08-17T09:03:37.610Z,26.16
2022-08-17T09:06:38.903Z,26.18
2022-08-17T09:09:25.889Z,26.23
2022-08-17T09:12:06.677Z,26.33
2022-08-17T09:14:46.805Z,26.40
2022-08-17T09:17:22.100Z,26.44
2022-08-17T09:20:00.475Z,26.52
2022-08-17T09:22:38.154Z,26.56
2022-08-17T09:25:13.525Z,26.61
2022-08-17T09:27:54.470Z,26.64
2022-08-17T09:30:26.548Z,26.67
2022-08-17T09:33:00.895Z,26.76
2022-08-17T09:35:37.610Z,26.87
2022-08-17T09:38:20.786Z,26.85
2022-08-17T09:40:56.714Z,26.81
2022-08-17T09:43:33.500Z,26.81
2022-08-17T09:46:11.276Z,26.82
2022-08-17T09:48:46.513Z,26.94
2022-08-17T09:51:23.302Z,27.01
2022-08-17T09:53:54.347Z,27.05
2022-08-17T09:56:42.317Z,27.12
2022-08-17T09:59:37.126Z,27.13
2022-08-17T10:02:33.599Z,27.21
2022-08-17T10:05:08.888Z,27.30
2022-08-17T10:07:44.769Z,27.39
2022-08-17T10:10:24.977Z,27.34
2022-08-17T10:13:00.671Z,27.38
2022-08-17T10:15:49.586Z,27.38
2022-08-17T10:18:37.855Z,27.32
2022-08-17T10:21:30.040Z,27.26
2022-08-17T10:24:28.161Z,27.19
2022-08-17T10:27:04.444Z,27.17
2022-08-17T10:29:49.152Z,27.18
2022-08-17T10:32:32.283Z,27.24
2022-08-17T10:35:27.667Z,27.37
2022-08-17T10:38:24.527Z,27.48
2022-08-17T10:41:00.908Z,27.63
2022-08-17T10:43:42.077Z,27.72
2022-08-17T10:46:33.601Z,27.77
2022-08-17T10:49:30.477Z,27.79
2022-08-17T10:52:03.529Z,27.85
2022-08-17T10:54:46.531Z,27.92
2022-08-17T10:57:38.960Z,27.97
2022-08-17T11:00:15.946Z,27.96
2022-08-17T11:02:52.088Z,27.95
2022-08-17T11:05:28.639Z,27.89
2022-08-17T11:08:23.681Z,27.90
2022-08-17T11:11:08.763Z,27.95
2022-08-17T11:13:49.898Z,28.09
2022-08-17T11:16:39.897Z,28.13
2022-08-17T11:19:36.844Z,28.18
2022-08-17T11:22:35.267Z,28.33
2022-08-17T11:25:17.101Z,28.38
2022-08-17T11:27:53.622Z,28.41
2022-08-17T11:30:47.156Z,28.51
2022-08-17T11:33:53.757Z,28.55
2022-08-17T11:36:38.719Z,28.62
2022-08-17T11:39:38.949Z,28.65
2022-08-17T11:42:26.521Z,28.67
2022-08-17T11:45:00.356Z,28.74
2022-08-17T11:48:23.883Z,28.88
2022-08-17T11:51:27.049Z,28.98
2022-08-17T11:57:02.574Z,29.16
2022-08-17T12:00:01.098Z,29.21
2022-08-17T12:02:49.041Z,29.30
2022-08-17T12:05:39.318Z,29.37
2022-08-17T12:08:21.672Z,29.44
2022-08-17T12:11:08.411Z,29.50
2022-08-17T12:13:43.003Z,29.66
2022-08-17T12:16:18.737Z,29.74
2022-08-17T12:18:54.450Z,29.83
2022-08-17T12:21:38.663Z,29.90
2022-08-17T12:24:21.001Z,30.01
2022-08-17T12:26:58.290Z,30.14
2022-08-17T12:29:38.801Z,30.25
2022-08-17T12:32:18.671Z,30.31
2022-08-17T12:34:52.159Z,30.38
2022-08-17T12:37:27.820Z,30.44
2022-08-17T12:40:02.931Z,30.48
2022-08-17T12:42:37.319Z,30.63
2022-08-17T12:45:16.184Z,30.80
2022-08-17T12:47:46.710Z,30.88
2022-08-17T12:50:29.074Z,30.97
2022-08-17T12:53:02.512Z,31.14
2022-08-17T12:55:39.025Z,31.24
2022-08-17T12:58:14.747Z,31.37
2022-08-17T13:00:51.852Z,31.51
2022-08-17T13:03:26.491Z,31.66
2022-08-17T13:06:03.234Z,31.78
2022-08-17T13:08:36.092Z,31.89
2022-08-17T13:11:09.858Z,32.02
2022-08-17T13:13:42.670Z,32.10
2022-08-17T13:16:22.504Z,32.18
2022-08-17T13:18:55.896Z,32.28
2022-08-17T13:21:30.798Z,32.34
2022-08-17T13:24:04.167Z,32.45
2022-08-17T13:26:37.966Z,32.54
2022-08-17T13:29:18.581Z,32.56
2022-08-17T13:31:52.850Z,32.62
2022-08-17T13:34:47.572Z,32.70
2022-08-17T13:37:35.883Z,32.80
2022-08-17T13:40:30.364Z,32.81
2022-08-17T13:43:03.307Z,32.83
2022-08-17T13:45:52.298Z,32.92
2022-08-17T13:48:27.055Z,32.95
2022-08-17T13:51:23.421Z,32.98
2022-08-17T13:54:01.855Z,33.03
2022-08-17T13:56:41.663Z,33.04
2022-08-17T13:59:15.532Z,33.04
2022-08-17T14:01:53.493Z,33.01
2022-08-17T14:04:29.429Z,33.03
2022-08-17T14:07:02.912Z,33.10
2022-08-17T14:09:37.607Z,33.13
2022-08-17T14:12:12.457Z,33.18
2022-08-17T14:14:43.794Z,33.32
2022-08-17T14:17:14.512Z,33.38
2022-08-17T14:19:44.798Z,33.48
2022-08-17T14:22:28.410Z,33.59
2022-08-17T14:25:01.698Z,33.71
2022-08-17T14:27:34.114Z,33.77
2022-08-17T14:30:29.032Z,33.92
2022-08-17T14:33:02.207Z,34.02
2022-08-17T14:35:32.683Z,34.20
2022-08-17T14:38:03.886Z,34.33
2022-08-17T14:40:35.316Z,34.43
2022-08-17T14:43:05.828Z,34.54
2022-08-17T14:45:36.146Z,34.71
2022-08-17T14:48:08.508Z,34.89
2022-08-17T14:50:40.624Z,35.09
2022-08-17T14:53:17.259Z,35.32
2022-08-17T14:55:47.791Z,35.48
2022-08-17T14:58:19.575Z,35.54
2022-08-17T15:00:51.027Z,35.72
2022-08-17T15:03:22.755Z,35.93
2022-08-17T15:05:53.909Z,36.20
2022-08-17T15:08:24.281Z,36.50
2022-08-17T15:10:54.683Z,36.84
2022-08-17T15:13:27.101Z,37.19
2022-08-17T15:15:59.822Z,37.53
2022-08-17T15:18:30.825Z,37.90
2022-08-17T15:21:03.840Z,38.24
2022-08-17T15:23:34.142Z,38.54
2022-08-17T15:26:04.488Z,38.88
2022-08-17T15:28:34.927Z,39.15
2022-08-17T15:31:06.702Z,39.40
2022-08-17T15:33:37.118Z,39.81
2022-08-17T15:36:09.585Z,40.27
2022-08-17T15:38:40.303Z,40.56
2022-08-17T15:41:15.126Z,40.77
2022-08-17T15:43:46.242Z,40.21
2022-08-17T15:46:18.903Z,39.62
2022-08-17T15:48:51.239Z,38.86
2022-08-17T15:51:24.471Z,38.27
2022-08-17T15:53:56.800Z,37.81
2022-08-17T15:56:31.301Z,37.31
2022-08-17T15:59:02.147Z,36.98
2022-08-17T16:03:01.812Z,36.64
2022-08-17T16:04:29.627Z,36.16
2022-08-17T16:07:01.189Z,35.61
2022-08-17T16:09:31.772Z,35.33
2022-08-17T16:12:11.758Z,35.10
2022-08-17T16:14:42.456Z,34.92
2022-08-17T16:17:38.747Z,34.75
2022-08-17T16:20:05.296Z,34.51
2022-08-17T16:22:39.104Z,34.27
2022-08-17T16:25:13.847Z,34.07
2022-08-17T16:27:44.952Z,33.84
2022-08-17T16:30:18.190Z,33.67
2022-08-17T16:32:51.401Z,33.56
2022-08-17T16:35:25.200Z,33.44
2022-08-17T16:37:57.163Z,33.33
2022-08-17T16:40:31.230Z,33.26
2022-08-17T16:43:12.221Z,33.21
2022-08-17T16:45:42.766Z,33.12
2022-08-17T16:48:13.070Z,33.04
2022-08-17T16:50:43.662Z,32.85
2022-08-17T16:53:34.060Z,32.60
2022-08-17T16:56:05.169Z,32.49
2022-08-17T16:58:35.971Z,32.46
2022-08-17T17:01:09.412Z,32.43
2022-08-17T17:03:43.924Z,32.35
2022-08-17T17:06:26.006Z,32.28
2022-08-17T17:09:01.547Z,32.16
2022-08-17T17:11:36.620Z,32.00
2022-08-17T17:14:11.325Z,31.84
2022-08-17T17:16:46.444Z,31.68
2022-08-17T17:19:27.688Z,31.49
2022-08-17T17:22:14.949Z,31.32
2022-08-17T17:24:57.159Z,31.15
2022-08-17T17:27:36.542Z,31.06
2022-08-17T17:30:11.725Z,30.90
2022-08-17T17:32:48.438Z,30.77
2022-08-17T17:35:24.100Z,30.62
2022-08-17T17:37:58.295Z,30.51
2022-08-17T17:40:34.230Z,30.39
2022-08-17T17:43:37.071Z,30.26
2022-08-17T17:46:27.537Z,30.06
2022-08-17T17:48:59.592Z,29.86
2022-08-17T17:52:09.041Z,29.71
2022-08-17T17:54:40.183Z,29.56
2022-08-17T17:57:24.712Z,29.41
2022-08-17T18:00:04.716Z,29.28
2022-08-17T18:02:51.864Z,29.14
2022-08-17T18:05:48.871Z,28.90
2022-08-17T18:08:35.982Z,28.73
2022-08-17T18:11:24.173Z,28.59
2022-08-17T18:14:14.827Z,28.44
2022-08-17T18:16:47.449Z,28.27
2022-08-17T18:19:21.011Z,28.08
2022-08-17T18:21:56.641Z,27.93
2022-08-17T18:24:36.607Z,27.83
2022-08-17T18:27:23.267Z,27.76
2022-08-17T18:29:55.671Z,27.68
2022-08-17T18:32:35.853Z,27.62
2022-08-17T18:35:28.016Z,27.57
2022-08-17T18:38:20.320Z,27.51
2022-08-17T18:41:00.706Z,27.41
2022-08-17T18:43:43.881Z,27.33
2022-08-17T18:46:31.260Z,27.25
2022-08-17T18:49:04.886Z,27.16
2022-08-17T18:51:42.031Z,27.09
2022-08-17T18:54:25.605Z,27.04
2022-08-17T18:56:58.925Z,26.99
2022-08-17T18:59:39.057Z,26.89
2022-08-17T19:02:44.108Z,26.67
2022-08-17T19:05:32.096Z,26.53
2022-08-17T19:08:19.941Z,26.46
2022-08-17T19:10:54.308Z,26.41
2022-08-17T19:13:30.500Z,26.38
2022-08-17T19:16:14.176Z,26.35
2022-08-17T19:18:50.983Z,26.31
2022-08-17T19:21:26.672Z,26.25
2022-08-17T19:24:04.688Z,26.17
2022-08-17T19:26:53.473Z,26.08
2022-08-17T19:29:34.235Z,26.00
2022-08-17T19:32:07.832Z,25.92
2022-08-17T19:34:44.573Z,25.89
2022-08-17T19:37:25.887Z,25.87
2022-08-17T19:40:06.289Z,25.85
2022-08-17T19:42:49.978Z,25.83
2022-08-17T19:45:33.628Z,25.81
2022-08-17T19:48:18.912Z,25.79
2022-08-17T19:50:55.927Z,25.77
2022-08-17T19:54:03.700Z,25.74
2022-08-17T19:56:41.122Z,25.71
2022-08-17T19:59:17.391Z,25.70
2022-08-17T20:01:52.534Z,25.67
2022-08-17T20:04:37.212Z,25.61
2022-08-17T20:07:14.801Z,25.54
2022-08-17T20:09:53.276Z,25.49
2022-08-17T20:12:28.666Z,25.45
2022-08-17T20:15:04.649Z,25.40
2022-08-17T20:17:39.286Z,25.32
2022-08-17T20:20:20.914Z,25.25
2022-08-17T20:23:02.972Z,25.22
2022-08-17T20:25:43.971Z,25.17
2022-08-17T20:28:24.947Z,25.11
2022-08-17T20:30:58.015Z,25.01
2022-08-17T20:33:33.908Z,24.93
2022-08-17T20:36:17.919Z,24.89
2022-08-17T20:38:52.714Z,24.84
2022-08-17T20:41:25.796Z,24.80
2022-08-17T20:44:07.160Z,24.78
2022-08-17T20:46:57.684Z,24.77
2022-08-17T20:49:36.032Z,24.75
2022-08-17T20:52:10.164Z,24.72
2022-08-17T20:54:51.076Z,24.72
2022-08-17T20:57:48.560Z,24.67
2022-08-17T21:00:45.907Z,24.57
2022-08-17T21:03:51.236Z,24.49
2022-08-17T21:06:26.411Z,24.47
2022-08-17T21:09:19.287Z,24.46
2022-08-17T21:12:03.775Z,24.40
2022-08-17T21:14:56.387Z,24.42
2022-08-17T21:17:59.074Z,24.45
2022-08-17T21:20:35.518Z,24.47
2022-08-17T21:23:28.303Z,24.50
2022-08-17T21:26:25.554Z,24.53
2022-08-17T21:29:30.451Z,24.55
2022-08-17T21:32:24.473Z,24.57
2022-08-17T21:35:24.499Z,24.59
2022-08-17T21:38:02.802Z,24.61
2022-08-17T21:40:34.977Z,24.63
2022-08-17T21:43:23.626Z,24.64
2022-08-17T21:46:09.357Z,24.65
2022-08-17T21:48:48.244Z,24.66
2022-08-17T21:51:22.820Z,24.66
2022-08-17T21:53:57.229Z,24.66
2022-08-17T21:56:31.474Z,24.66
2022-08-17T21:59:05.687Z,24.66
2022-08-17T22:01:38.177Z,24.66
2022-08-17T22:04:21.873Z,24.65
2022-08-17T22:06:57.041Z,24.66
2022-08-17T22:09:31.995Z,24.65
2022-08-17T22:12:11.251Z,24.63
2022-08-17T22:14:52.064Z,24.60
2022-08-17T22:17:26.787Z,24.58
2022-08-17T22:20:00.592Z,24.56
2022-08-17T22:22:35.441Z,24.55
2022-08-17T22:25:09.742Z,24.54
2022-08-17T22:27:55.637Z,24.50
2022-08-17T22:30:35.909Z,24.44
2022-08-17T22:33:39.082Z,24.40
2022-08-17T22:36:30.992Z,24.34
2022-08-17T22:39:23.468Z,24.28
2022-08-17T22:41:59.619Z,24.20
2022-08-17T22:44:32.404Z,24.14
2022-08-17T22:47:25.290Z,24.04
2022-08-17T22:49:57.845Z,23.96
2022-08-17T22:52:34.435Z,23.90
2022-08-17T22:55:32.620Z,23.84
2022-08-17T22:58:28.340Z,23.78
2022-08-17T23:01:18.923Z,23.72
2022-08-17T23:03:58.115Z,23.58
2022-08-17T23:06:29.246Z,23.39
2022-08-17T23:08:59.666Z,23.28
2022-08-17T23:11:36.979Z,23.24
2022-08-17T23:14:19.771Z,23.18
2022-08-17T23:16:51.208Z,23.15
2022-08-17T23:19:23.741Z,23.12
2022-08-17T23:21:55.502Z,23.07
2022-08-17T23:24:28.333Z,23.00
2022-08-17T23:26:59.321Z,22.94
2022-08-17T23:29:30.412Z,22.89
2022-08-17T23:32:03.988Z,22.83
2022-08-17T23:34:35.161Z,22.75
2022-08-17T23:37:06.076Z,22.65
2022-08-17T23:39:36.829Z,22.52
2022-08-17T23:42:09.988Z,22.39
2022-08-17T23:44:43.763Z,22.30
2022-08-17T23:47:14.077Z,22.21
2022-08-17T23:49:45.724Z,22.12
2022-08-17T23:52:17.983Z,22.05
2022-08-17T23:54:49.462Z,22.00
2022-08-17T23:57:33.432Z,21.96
